Time;durP1;ratioP1;P1;durP2;ratioP2;P2;SDS_P1;SDS_P2;PMS_P1;PMS_P2;Temp;Humidity;BMP_temperature;BMP_pressure;BME280_temperature;BME280_humidity;BME280_pressure;Samples;Min_cycle;Max_cycle;Signal;HPM_P1;HPM_P2
2023/06/16 00:00:14;;;;;;;;;;;15.40;99.90;;;;;;5093490;28;20019;-82
2023/06/16 00:02:43;;;;;;;;;;;15.40;99.90;;;;;;5094470;28;19935;-81
2023/06/16 00:05:10;;;;;;;;;;;15.40;99.90;;;;;;5092958;28;19950;-82
2023/06/16 00:07:36;;;;;;;;;;;15.40;99.90;;;;;;5088551;28;19932;-82
2023/06/16 00:10:03;;;;;;;;;;;15.30;99.90;;;;;;5091778;28;19997;-81
2023/06/16 00:12:29;;;;;;;;;;;15.20;99.90;;;;;;5091191;28;19978;-82
2023/06/16 00:14:54;;;;;;;;;;;15.20;99.90;;;;;;5091122;28;19932;-81
2023/06/16 00:17:20;;;;;;;;;;;15.10;99.90;;;;;;5091422;28;19928;-82
2023/06/16 00:19:47;;;;;;;;;;;15.20;99.90;;;;;;5093051;28;20008;-82
2023/06/16 00:22:12;;;;;;;;;;;15.20;99.90;;;;;;5080833;28;19924;-82
2023/06/16 00:24:38;;;;;;;;;;;15.20;99.90;;;;;;5091477;28;20274;-82
2023/06/16 00:27:04;;;;;;;;;;;15.10;99.90;;;;;;5076693;28;21469;-82
2023/06/16 00:29:29;;;;;;;;;;;15.00;99.90;;;;;;5085548;28;20292;-82
2023/06/16 00:31:55;;;;;;;;;;;15.00;99.90;;;;;;5088364;28;19931;-82
2023/06/16 00:34:21;;;;;;;;;;;15.00;99.90;;;;;;5092638;28;19924;-82
2023/06/16 00:36:46;;;;;;;;;;;15.00;99.90;;;;;;5072742;28;19955;-82
2023/06/16 00:39:12;;;;;;;;;;;14.90;99.90;;;;;;5084587;28;20022;-81
2023/06/16 00:41:37;;;;;;;;;;;15.00;99.90;;;;;;5067569;28;19923;-82
2023/06/16 00:44:03;;;;;;;;;;;14.90;99.90;;;;;;5096225;28;19985;-82
2023/06/16 00:46:32;;;;;;;;;;;14.80;99.90;;;;;;5091538;28;20406;-82
2023/06/16 00:48:58;;;;;;;;;;;14.80;99.90;;;;;;5094885;28;20414;-82
2023/06/16 00:51:27;;;;;;;;;;;14.70;99.90;;;;;;5086412;28;20047;-81
2023/06/16 00:53:53;;;;;;;;;;;14.80;99.90;;;;;;5090817;28;19928;-83
2023/06/16 00:56:21;;;;;;;;;;;14.80;99.90;;;;;;5088838;28;19939;-81
2023/06/16 00:58:50;;;;;;;;;;;14.80;99.90;;;;;;5088850;28;19932;-82
2023/06/16 01:01:16;;;;;;;;;;;14.60;99.90;;;;;;5088680;28;20395;-81
2023/06/16 01:03:41;;;;;;;;;;;14.70;99.90;;;;;;5090345;28;19935;-81
2023/06/16 01:06:14;;;;;;;;;;;14.60;99.90;;;;;;5094271;28;20018;-81
2023/06/16 01:08:45;;;;;;;;;;;14.50;99.90;;;;;;5090653;28;20470;-81
2023/06/16 01:11:14;;;;;;;;;;;14.50;99.90;;;;;;5090160;28;19935;-82
2023/06/16 01:13:48;;;;;;;;;;;14.40;99.90;;;;;;5088304;28;19940;-82
2023/06/16 01:16:15;;;;;;;;;;;14.40;99.90;;;;;;5089053;28;19932;-82
2023/06/16 01:18:43;;;;;;;;;;;14.30;99.90;;;;;;5095899;28;19977;-82
2023/06/16 01:21:20;;;;;;;;;;;14.40;99.90;;;;;;5101365;28;19927;-82
2023/06/16 01:24:03;;;;;;;;;;;14.20;99.90;;;;;;5089959;28;19929;-81
2023/06/16 01:26:34;;;;;;;;;;;14.00;99.90;;;;;;5091789;28;19928;-81
2023/06/16 01:29:00;;;;;;;;;;;14.00;99.90;;;;;;5100441;28;19928;-81
2023/06/16 01:31:28;;;;;;;;;;;14.10;99.90;;;;;;5093648;28;19932;-81
2023/06/16 01:33:54;;;;;;;;;;;14.00;99.90;;;;;;5090859;28;19955;-81
2023/06/16 01:36:20;;;;;;;;;;;14.10;99.90;;;;;;5085765;28;20369;-81
2023/06/16 01:38:46;;;;;;;;;;;14.00;99.90;;;;;;5087962;28;19934;-82
2023/06/16 01:41:12;;;;;;;;;;;13.90;99.90;;;;;;5092536;28;20370;-81
2023/06/16 01:43:38;;;;;;;;;;;13.80;99.90;;;;;;5091025;28;19969;-81
2023/06/16 01:46:04;;;;;;;;;;;13.70;99.90;;;;;;5092024;28;19928;-81
2023/06/16 01:48:30;;;;;;;;;;;13.60;99.90;;;;;;5086928;28;19940;-81
2023/06/16 01:50:55;;;;;;;;;;;13.60;99.90;;;;;;5076720;28;19932;-81
2023/06/16 01:53:21;;;;;;;;;;;13.50;99.90;;;;;;5089260;28;20387;-81
2023/06/16 01:55:47;;;;;;;;;;;13.50;99.90;;;;;;5091633;28;19932;-81
2023/06/16 01:58:14;;;;;;;;;;;13.50;99.90;;;;;;5103237;27;20490;-81
2023/06/16 02:00:43;;;;;;;;;;;13.50;99.90;;;;;;5088361;28;19978;-82
2023/06/16 02:03:09;;;;;;;;;;;13.40;99.90;;;;;;5092443;28;19924;-81
2023/06/16 02:05:35;;;;;;;;;;;13.30;99.90;;;;;;5085365;28;19935;-81
2023/06/16 02:08:02;;;;;;;;;;;13.30;99.90;;;;;;5092264;28;19931;-82
2023/06/16 02:10:28;;;;;;;;;;;13.20;99.90;;;;;;5087681;28;19927;-82
2023/06/16 02:12:54;;;;;;;;;;;13.20;99.90;;;;;;5092358;28;19928;-82
2023/06/16 02:15:21;;;;;;;;;;;13.20;99.90;;;;;;5089499;28;19923;-81
2023/06/16 02:17:47;;;;;;;;;;;13.20;99.90;;;;;;5092602;28;20381;-81
2023/06/16 02:20:13;;;;;;;;;;;12.90;99.90;;;;;;5093741;28;20004;-82
2023/06/16 02:22:39;;;;;;;;;;;12.80;99.90;;;;;;5085248;28;20381;-82
2023/06/16 02:25:05;;;;;;;;;;;12.90;99.90;;;;;;5089422;28;20426;-81
2023/06/16 02:27:31;;;;;;;;;;;12.90;99.90;;;;;;5091360;28;19932;-82
2023/06/16 02:29:56;;;;;;;;;;;12.90;99.90;;;;;;5085344;28;20065;-82
2023/06/16 02:32:22;;;;;;;;;;;13.10;99.90;;;;;;5088065;28;19928;-82
2023/06/16 02:34:48;;;;;;;;;;;13.10;99.90;;;;;;5086980;28;19928;-82
2023/06/16 02:37:14;;;;;;;;;;;13.00;99.90;;;;;;5089085;28;19958;-83
2023/06/16 02:39:39;;;;;;;;;;;13.10;99.90;;;;;;5081370;28;19928;-82
2023/06/16 02:42:06;;;;;;;;;;;13.00;99.90;;;;;;5086326;28;19932;-83
2023/06/16 02:44:31;;;;;;;;;;;13.00;99.90;;;;;;5091250;28;19993;-82
2023/06/16 02:46:57;;;;;;;;;;;13.10;99.90;;;;;;5085841;28;20018;-82
2023/06/16 02:49:23;;;;;;;;;;;13.20;99.90;;;;;;5091483;28;19923;-83
2023/06/16 02:51:50;;;;;;;;;;;13.20;99.90;;;;;;5087205;28;19936;-83
2023/06/16 02:54:15;;;;;;;;;;;13.30;99.90;;;;;;5096900;28;19932;-82
2023/06/16 02:56:41;;;;;;;;;;;13.20;99.90;;;;;;5096994;28;19932;-81
2023/06/16 02:59:07;;;;;;;;;;;13.00;99.90;;;;;;5090447;27;19939;-82
2023/06/16 03:01:32;;;;;;;;;;;13.10;99.90;;;;;;5090548;28;19998;-83
2023/06/16 03:03:59;;;;;;;;;;;13.00;99.90;;;;;;5080666;28;20293;-82
2023/06/16 03:06:29;;;;;;;;;;;12.90;99.90;;;;;;5092693;28;20015;-82
2023/06/16 03:08:56;;;;;;;;;;;12.90;99.90;;;;;;5091710;28;20030;-82
2023/06/16 03:11:21;;;;;;;;;;;13.00;99.90;;;;;;5089923;28;19935;-83
2023/06/16 03:13:47;;;;;;;;;;;13.10;99.90;;;;;;5090357;28;20382;-82
2023/06/16 03:16:13;;;;;;;;;;;13.10;99.90;;;;;;5094130;28;20309;-82
2023/06/16 03:18:38;;;;;;;;;;;13.10;99.90;;;;;;5092769;28;19947;-83
2023/06/16 03:21:04;;;;;;;;;;;13.20;99.90;;;;;;5090083;28;20065;-82
2023/06/16 03:23:29;;;;;;;;;;;13.20;99.90;;;;;;5092998;28;19924;-82
2023/06/16 03:25:56;;;;;;;;;;;13.20;99.90;;;;;;5099162;28;19932;-82
2023/06/16 03:28:23;;;;;;;;;;;13.30;99.90;;;;;;5098395;28;20572;-82
2023/06/16 03:30:48;;;;;;;;;;;13.30;99.90;;;;;;5091420;28;20041;-83
2023/06/16 03:33:14;;;;;;;;;;;13.30;99.90;;;;;;5092015;28;20060;-83
2023/06/16 03:35:40;;;;;;;;;;;13.30;99.90;;;;;;5086592;28;19928;-82
2023/06/16 03:38:05;;;;;;;;;;;13.20;99.90;;;;;;5095950;28;19927;-83
2023/06/16 03:40:31;;;;;;;;;;;13.20;99.90;;;;;;5090081;28;19928;-83
2023/06/16 03:42:56;;;;;;;;;;;13.20;99.90;;;;;;5090142;28;19935;-83
2023/06/16 03:45:22;;;;;;;;;;;13.10;99.90;;;;;;5090976;28;19972;-82
2023/06/16 03:47:47;;;;;;;;;;;13.00;99.90;;;;;;5086884;28;19929;-83
2023/06/16 03:50:13;;;;;;;;;;;13.00;99.90;;;;;;5092882;28;19930;-83
2023/06/16 03:52:39;;;;;;;;;;;12.90;99.90;;;;;;5093723;28;19932;-82
2023/06/16 03:55:05;;;;;;;;;;;12.90;99.90;;;;;;5096568;28;19928;-83
2023/06/16 03:57:31;;;;;;;;;;;12.80;99.90;;;;;;5092333;28;22408;-83
2023/06/16 03:59:56;;;;;;;;;;;12.80;99.90;;;;;;5090940;28;19931;-83
2023/06/16 04:02:22;;;;;;;;;;;12.80;99.90;;;;;;5088262;28;19932;-83
2023/06/16 04:04:47;;;;;;;;;;;12.80;99.90;;;;;;5088738;28;19923;-82
2023/06/16 04:07:13;;;;;;;;;;;12.90;99.90;;;;;;5087341;28;20386;-82
2023/06/16 04:09:38;;;;;;;;;;;12.90;99.90;;;;;;5093111;28;20365;-82
2023/06/16 04:12:04;;;;;;;;;;;12.90;99.90;;;;;;5091108;28;19927;-83
2023/06/16 04:14:30;;;;;;;;;;;13.00;99.90;;;;;;5085547;28;19928;-82
2023/06/16 04:16:55;;;;;;;;;;;13.10;99.90;;;;;;5088946;28;20293;-82
2023/06/16 04:19:21;;;;;;;;;;;13.20;99.90;;;;;;5090137;28;20631;-83
2023/06/16 04:21:47;;;;;;;;;;;13.30;99.90;;;;;;5066642;28;19943;-83
2023/06/16 04:24:14;;;;;;;;;;;13.30;99.90;;;;;;5096999;28;19938;-82
2023/06/16 04:26:41;;;;;;;;;;;13.40;99.90;;;;;;5086924;28;20041;-83
2023/06/16 04:29:07;;;;;;;;;;;13.50;99.90;;;;;;5091054;28;19932;-82
2023/06/16 04:31:35;;;;;;;;;;;13.50;99.90;;;;;;5085141;28;19924;-82
2023/06/16 04:34:03;;;;;;;;;;;13.50;99.90;;;;;;5087083;28;19939;-83
2023/06/16 04:36:29;;;;;;;;;;;13.60;99.90;;;;;;5093415;28;19935;-83
2023/06/16 04:38:56;;;;;;;;;;;13.80;99.90;;;;;;5088922;28;19942;-83
2023/06/16 04:41:22;;;;;;;;;;;14.10;99.90;;;;;;5088511;28;19939;-82
2023/06/16 04:43:47;;;;;;;;;;;16.20;99.90;;;;;;5092927;28;20386;-82
2023/06/16 04:46:13;;;;;;;;;;;17.20;99.90;;;;;;5082061;28;19929;-82
2023/06/16 04:48:39;;;;;;;;;;;18.00;99.90;;;;;;5089373;28;19962;-83
2023/06/16 04:51:04;;;;;;;;;;;19.10;99.90;;;;;;5091041;28;19928;-83
2023/06/16 04:53:30;;;;;;;;;;;20.80;99.90;;;;;;5092212;28;19974;-83
2023/06/16 04:55:56;;;;;;;;;;;21.70;99.90;;;;;;5086591;28;19931;-82
2023/06/16 04:58:21;;;;;;;;;;;22.40;99.90;;;;;;5089603;28;19927;-83
2023/06/16 05:00:47;;;;;;;;;;;23.20;99.90;;;;;;5087751;28;19939;-82
2023/06/16 05:03:12;;;;;;;;;;;23.70;99.90;;;;;;5089568;28;19928;-83
2023/06/16 05:05:38;;;;;;;;;;;24.10;99.90;;;;;;5089629;28;19988;-84
2023/06/16 05:08:03;;;;;;;;;;;24.60;99.90;;;;;;5094175;28;20398;-83
2023/06/16 05:10:29;;;;;;;;;;;24.80;99.90;;;;;;5097422;28;19973;-83
2023/06/16 05:12:57;;;;;;;;;;;25.20;99.10;;;;;;5095080;28;19932;-84
2023/06/16 05:15:23;;;;;;;;;;;25.50;98.70;;;;;;5091954;28;20547;-83
2023/06/16 05:17:49;;;;;;;;;;;26.20;98.00;;;;;;5092404;28;19932;-83
2023/06/16 05:20:14;;;;;;;;;;;26.30;97.60;;;;;;5089881;28;20130;-83
2023/06/16 05:22:40;;;;;;;;;;;26.70;96.90;;;;;;5092557;28;20434;-84
2023/06/16 05:25:06;;;;;;;;;;;27.00;96.40;;;;;;5084979;28;19924;-83
2023/06/16 05:27:31;;;;;;;;;;;27.10;95.90;;;;;;5092854;28;19927;-82
2023/06/16 05:29:57;;;;;;;;;;;27.20;95.50;;;;;;5094957;28;19931;-82
2023/06/16 05:32:22;;;;;;;;;;;27.40;95.30;;;;;;5096586;28;20656;-82
2023/06/16 05:34:49;;;;;;;;;;;27.40;95.40;;;;;;5093105;28;19935;-84
2023/06/16 05:37:18;;;;;;;;;;;27.50;95.40;;;;;;5097482;28;19924;-84
2023/06/16 05:39:45;;;;;;;;;;;27.50;95.30;;;;;;5076280;28;19931;-83
2023/06/16 05:42:11;;;;;;;;;;;27.60;95.30;;;;;;5093045;28;19927;-82
2023/06/16 05:44:37;;;;;;;;;;;27.60;95.40;;;;;;5088066;28;19932;-84
2023/06/16 05:47:03;;;;;;;;;;;26.90;95.40;;;;;;5096676;28;20373;-83
2023/06/16 05:49:28;;;;;;;;;;;24.70;96.90;;;;;;5087056;28;19928;-82
2023/06/16 05:51:56;;;;;;;;;;;23.80;97.90;;;;;;5092097;28;19924;-82
2023/06/16 05:54:22;;;;;;;;;;;23.40;98.90;;;;;;5092813;28;20026;-83
2023/06/16 05:56:47;;;;;;;;;;;23.40;99.60;;;;;;5098079;28;20030;-82
2023/06/16 05:59:13;;;;;;;;;;;23.20;99.90;;;;;;5093698;28;20450;-82
2023/06/16 06:01:39;;;;;;;;;;;23.00;99.90;;;;;;5094898;28;19981;-83
2023/06/16 06:04:04;;;;;;;;;;;23.00;99.90;;;;;;5093835;28;20296;-84
2023/06/16 06:06:30;;;;;;;;;;;22.90;99.90;;;;;;5100879;28;19923;-84
2023/06/16 06:08:55;;;;;;;;;;;22.80;99.90;;;;;;5094395;28;19925;-85
2023/06/16 06:11:21;;;;;;;;;;;23.10;99.90;;;;;;5101058;28;19935;-84
2023/06/16 06:13:46;;;;;;;;;;;23.10;99.90;;;;;;5082785;28;19931;-84
2023/06/16 06:16:13;;;;;;;;;;;23.50;99.90;;;;;;5098829;28;20487;-84
2023/06/16 06:18:38;;;;;;;;;;;23.70;99.90;;;;;;5095210;28;19938;-83
2023/06/16 06:21:04;;;;;;;;;;;23.40;99.90;;;;;;5093101;28;19953;-83
2023/06/16 06:23:29;;;;;;;;;;;23.70;99.90;;;;;;5094089;28;19924;-83
2023/06/16 06:25:58;;;;;;;;;;;23.50;99.90;;;;;;5099644;28;19983;-83
2023/06/16 06:28:26;;;;;;;;;;;23.40;99.90;;;;;;5095873;28;19960;-82
2023/06/16 06:30:52;;;;;;;;;;;23.60;99.90;;;;;;5094344;28;19934;-83
2023/06/16 06:33:17;;;;;;;;;;;23.70;99.90;;;;;;5071845;28;20299;-84
2023/06/16 06:35:43;;;;;;;;;;;23.80;99.90;;;;;;5096794;28;20352;-84
2023/06/16 06:38:08;;;;;;;;;;;23.90;99.90;;;;;;5099151;28;20503;-82
2023/06/16 06:40:35;;;;;;;;;;;24.10;99.90;;;;;;5081866;28;20475;-83
2023/06/16 06:43:01;;;;;;;;;;;24.10;99.90;;;;;;5101757;28;20286;-84
2023/06/16 06:45:27;;;;;;;;;;;24.20;99.90;;;;;;5099566;28;19931;-83
2023/06/16 06:47:52;;;;;;;;;;;23.80;99.90;;;;;;5100300;28;20394;-83
2023/06/16 06:50:18;;;;;;;;;;;23.90;99.90;;;;;;5104611;28;20304;-83
2023/06/16 06:52:43;;;;;;;;;;;24.20;99.90;;;;;;5099180;28;19982;-82
2023/06/16 06:55:09;;;;;;;;;;;23.70;99.90;;;;;;5097476;28;19927;-83
2023/06/16 06:57:34;;;;;;;;;;;24.00;99.90;;;;;;5081726;28;19934;-82
2023/06/16 07:00:00;;;;;;;;;;;24.20;99.90;;;;;;5090990;28;19945;-84
2023/06/16 07:02:26;;;;;;;;;;;24.30;99.90;;;;;;5089500;28;20376;-83
2023/06/16 07:04:51;;;;;;;;;;;24.20;99.90;;;;;;5091861;28;19979;-82
2023/06/16 07:07:17;;;;;;;;;;;24.50;99.90;;;;;;5092162;28;19928;-83
2023/06/16 07:09:42;;;;;;;;;;;24.60;99.90;;;;;;5101623;28;19939;-83
2023/06/16 07:12:08;;;;;;;;;;;24.90;99.90;;;;;;5098451;28;19927;-83
2023/06/16 07:14:34;;;;;;;;;;;24.60;99.90;;;;;;5101229;28;19928;-82
2023/06/16 07:17:01;;;;;;;;;;;24.50;99.90;;;;;;5100862;28;19927;-84
2023/06/16 07:19:27;;;;;;;;;;;24.80;99.90;;;;;;5101090;28;19959;-84
2023/06/16 07:21:53;;;;;;;;;;;24.30;99.90;;;;;;5097756;28;20495;-84
2023/06/16 07:24:19;;;;;;;;;;;24.80;99.90;;;;;;5101062;28;19935;-84
2023/06/16 07:26:45;;;;;;;;;;;24.90;99.90;;;;;;5100362;28;19928;-83
2023/06/16 07:29:10;;;;;;;;;;;24.50;99.70;;;;;;5103753;28;19931;-83
2023/06/16 07:31:36;;;;;;;;;;;24.90;99.80;;;;;;5097925;28;20010;-84
2023/06/16 07:34:01;;;;;;;;;;;24.60;99.80;;;;;;5103391;28;20304;-83
2023/06/16 07:36:27;;;;;;;;;;;25.20;99.30;;;;;;5100244;28;20650;-83
2023/06/16 07:38:53;;;;;;;;;;;25.10;98.90;;;;;;5101108;28;19932;-85
2023/06/16 07:41:19;;;;;;;;;;;25.00;98.30;;;;;;5097341;28;20451;-82
2023/06/16 07:43:47;;;;;;;;;;;24.90;96.10;;;;;;5099882;28;19931;-82
2023/06/16 07:46:12;;;;;;;;;;;24.40;97.30;;;;;;5101526;28;19935;-84
2023/06/16 07:48:38;;;;;;;;;;;24.80;96.50;;;;;;5102317;28;19924;-83
2023/06/16 07:51:03;;;;;;;;;;;24.70;98.20;;;;;;5097526;28;19970;-83
2023/06/16 07:53:29;;;;;;;;;;;24.70;97.90;;;;;;5100914;28;19931;-85
2023/06/16 07:55:54;;;;;;;;;;;24.70;97.50;;;;;;5098135;28;19939;-82
2023/06/16 07:58:22;;;;;;;;;;;25.20;97.60;;;;;;5098439;28;19928;-83
2023/06/16 08:00:51;;;;;;;;;;;24.90;96.40;;;;;;5097087;28;19923;-84
2023/06/16 08:03:21;;;;;;;;;;;25.00;96.60;;;;;;5090483;28;20023;-83
2023/06/16 08:05:46;;;;;;;;;;;24.90;95.90;;;;;;5091281;28;19935;-84
2023/06/16 08:08:12;;;;;;;;;;;24.70;96.90;;;;;;5091143;28;19924;-82
2023/06/16 08:10:37;;;;;;;;;;;25.10;96.60;;;;;;5081753;28;19999;-82
2023/06/16 08:13:03;;;;;;;;;;;25.50;97.80;;;;;;5099764;28;19985;-85
2023/06/16 08:15:28;;;;;;;;;;;25.70;97.00;;;;;;5098227;28;19930;-83
2023/06/16 08:17:54;;;;;;;;;;;25.60;95.30;;;;;;5097162;28;20039;-83
2023/06/16 08:20:20;;;;;;;;;;;25.50;95.80;;;;;;5096120;28;19985;-83
2023/06/16 08:22:46;;;;;;;;;;;25.60;94.40;;;;;;5096598;28;20495;-84
2023/06/16 08:25:12;;;;;;;;;;;25.70;95.70;;;;;;5095212;28;19974;-84
2023/06/16 08:27:38;;;;;;;;;;;25.90;95.40;;;;;;5095461;28;19958;-83
2023/06/16 08:30:04;;;;;;;;;;;25.90;95.20;;;;;;5093278;28;19989;-85
2023/06/16 08:32:30;;;;;;;;;;;26.00;96.10;;;;;;5099205;28;19924;-85
2023/06/16 08:34:55;;;;;;;;;;;25.90;96.30;;;;;;5097996;28;20652;-83
2023/06/16 08:37:22;;;;;;;;;;;26.00;96.30;;;;;;5100031;28;19935;-84
2023/06/16 08:39:47;;;;;;;;;;;25.80;95.00;;;;;;5095066;28;20384;-85
2023/06/16 08:42:15;;;;;;;;;;;26.20;94.40;;;;;;5018928;28;1800073;-85
2023/06/16 08:44:42;;;;;;;;;;;26.60;96.30;;;;;;5096298;28;19970;-84
2023/06/16 08:47:11;;;;;;;;;;;26.50;95.50;;;;;;5096672;28;19955;-84
2023/06/16 08:49:39;;;;;;;;;;;26.80;95.50;;;;;;5096550;28;19971;-82
2023/06/16 08:52:07;;;;;;;;;;;26.60;95.20;;;;;;5092887;28;19928;-82
2023/06/16 08:54:36;;;;;;;;;;;26.90;95.20;;;;;;5096608;28;19988;-83
2023/06/16 08:57:03;;;;;;;;;;;26.90;95.50;;;;;;5090204;28;20469;-83
2023/06/16 08:59:30;;;;;;;;;;;26.70;96.00;;;;;;5094406;28;19985;-85
2023/06/16 09:01:58;;;;;;;;;;;26.70;94.60;;;;;;5093846;28;19932;-83
2023/06/16 09:04:24;;;;;;;;;;;27.00;95.30;;;;;;5097063;28;19928;-85
2023/06/16 09:06:55;;;;;;;;;;;26.90;95.20;;;;;;5080132;28;19985;-86
2023/06/16 09:09:22;;;;;;;;;;;26.80;94.50;;;;;;5095670;28;19927;-85
2023/06/16 09:12:07;;;;;;;;;;;27.00;94.70;;;;;;5096964;28;19977;-82
2023/06/16 09:14:34;;;;;;;;;;;27.10;93.90;;;;;;5098801;28;19928;-83
2023/06/16 09:17:05;;;;;;;;;;;27.10;93.40;;;;;;5095577;28;19970;-85
2023/06/16 09:19:34;;;;;;;;;;;26.80;93.80;;;;;;5097448;28;19934;-83
2023/06/16 09:21:59;;;;;;;;;;;26.90;93.90;;;;;;5097216;28;20352;-82
2023/06/16 09:24:28;;;;;;;;;;;27.30;94.20;;;;;;5081783;28;20058;-86
2023/06/16 09:26:59;;;;;;;;;;;27.70;94.50;;;;;;5077996;28;19939;-84
2023/06/16 09:29:25;;;;;;;;;;;27.40;93.20;;;;;;5098665;28;19934;-83
2023/06/16 09:31:51;;;;;;;;;;;27.30;94.10;;;;;;5095266;28;19978;-83
2023/06/16 09:34:17;;;;;;;;;;;27.70;94.10;;;;;;5097892;28;19975;-85
2023/06/16 09:36:42;;;;;;;;;;;27.90;93.50;;;;;;5097770;28;19928;-83
2023/06/16 09:39:22;;;;;;;;;;;28.10;94.10;;;;;;5097897;28;19977;-84
2023/06/16 09:41:48;;;;;;;;;;;28.00;92.80;;;;;;5094856;28;19965;-86
2023/06/16 09:44:15;;;;;;;;;;;27.90;92.50;;;;;;5102856;28;19977;-85
2023/06/16 09:46:41;;;;;;;;;;;27.60;93.00;;;;;;5102328;28;19950;-86
2023/06/16 09:49:06;;;;;;;;;;;27.70;92.80;;;;;;5101040;28;19928;-82
2023/06/16 09:51:32;;;;;;;;;;;27.90;92.80;;;;;;5102535;28;19924;-86
2023/06/16 09:53:58;;;;;;;;;;;27.20;91.70;;;;;;5101740;28;21156;-82
2023/06/16 09:56:23;;;;;;;;;;;27.90;93.80;;;;;;5101929;28;20380;-83
2023/06/16 09:58:50;;;;;;;;;;;28.10;92.90;;;;;;5083590;28;20393;-86
2023/06/16 10:01:16;;;;;;;;;;;28.40;91.30;;;;;;5101221;28;20018;-85
2023/06/16 10:03:43;;;;;;;;;;;28.20;92.10;;;;;;5103057;28;20403;-83
2023/06/16 10:06:19;;;;;;;;;;;28.30;92.20;;;;;;5104005;28;19988;-84
2023/06/16 10:08:48;;;;;;;;;;;28.80;92.90;;;;;;5098030;28;20121;-86
2023/06/16 10:11:18;;;;;;;;;;;28.60;91.50;;;;;;5099375;28;19931;-86
2023/06/16 10:13:45;;;;;;;;;;;27.80;90.20;;;;;;5096600;28;20019;-82
2023/06/16 10:16:12;;;;;;;;;;;28.20;91.60;;;;;;5097503;28;20277;-84
2023/06/16 10:18:42;;;;;;;;;;;28.50;91.60;;;;;;5097964;28;19931;-84
2023/06/16 10:21:08;;;;;;;;;;;28.30;91.50;;;;;;5099551;28;19933;-86
2023/06/16 10:23:34;;;;;;;;;;;28.20;91.00;;;;;;5081894;28;19928;-84
2023/06/16 10:26:00;;;;;;;;;;;28.10;90.40;;;;;;5094809;28;19927;-84
2023/06/16 10:28:26;;;;;;;;;;;28.00;90.50;;;;;;5098854;28;19935;-82
2023/06/16 10:30:52;;;;;;;;;;;28.70;90.10;;;;;;5099286;28;20407;-86
2023/06/16 10:33:21;;;;;;;;;;;28.40;88.80;;;;;;5099256;28;19947;-83
2023/06/16 10:35:51;;;;;;;;;;;28.50;89.10;;;;;;5099565;28;20010;-84
2023/06/16 10:38:17;;;;;;;;;;;28.80;91.10;;;;;;5095317;28;19928;-86
2023/06/16 10:40:44;;;;;;;;;;;28.90;90.20;;;;;;5095761;28;19935;-85
2023/06/16 10:43:22;;;;;;;;;;;29.10;90.30;;;;;;5088814;28;19925;-83
2023/06/16 10:45:48;;;;;;;;;;;28.70;88.10;;;;;;5092793;28;20296;-83
2023/06/16 10:48:13;;;;;;;;;;;29.10;89.30;;;;;;5084301;28;19928;-84
2023/06/16 10:50:39;;;;;;;;;;;29.00;89.00;;;;;;5100945;28;19935;-85
2023/06/16 10:53:08;;;;;;;;;;;29.40;90.20;;;;;;5096308;28;19963;-84
2023/06/16 10:55:34;;;;;;;;;;;28.80;89.10;;;;;;5093318;28;19938;-84
2023/06/16 10:58:15;;;;;;;;;;;29.20;90.20;;;;;;5089260;28;19924;-85
2023/06/16 11:00:41;;;;;;;;;;;29.60;88.70;;;;;;5093905;28;20005;-83
2023/06/16 11:03:06;;;;;;;;;;;29.70;88.20;;;;;;5092358;28;19928;-85
2023/06/16 11:05:39;;;;;;;;;;;29.80;88.80;;;;;;5096809;28;19924;-84
2023/06/16 11:08:08;;;;;;;;;;;29.90;87.90;;;;;;5098773;28;20496;-87
2023/06/16 11:10:48;;;;;;;;;;;29.30;88.00;;;;;;5089060;28;19934;-87
2023/06/16 11:13:14;;;;;;;;;;;29.90;86.70;;;;;;5088668;28;19982;-83
2023/06/16 11:15:41;;;;;;;;;;;29.80;86.60;;;;;;5095842;28;19979;-84
2023/06/16 11:18:07;;;;;;;;;;;29.90;87.20;;;;;;5090543;28;20141;-84
2023/06/16 11:20:34;;;;;;;;;;;29.60;84.80;;;;;;5097092;28;19966;-86
2023/06/16 11:22:59;;;;;;;;;;;29.90;87.50;;;;;;5098773;28;19924;-82
2023/06/16 11:25:25;;;;;;;;;;;30.10;86.20;;;;;;5092053;28;19927;-85
2023/06/16 11:27:50;;;;;;;;;;;29.80;85.50;;;;;;5090445;28;19935;-83
2023/06/16 11:30:16;;;;;;;;;;;29.90;82.90;;;;;;5095951;28;19932;-85
2023/06/16 11:32:42;;;;;;;;;;;29.70;82.00;;;;;;5094737;28;19924;-83
2023/06/16 11:35:08;;;;;;;;;;;29.00;79.70;;;;;;5095163;28;20405;-83
2023/06/16 11:37:41;;;;;;;;;;;29.80;82.00;;;;;;5099730;28;19928;-83
2023/06/16 11:40:07;;;;;;;;;;;30.10;84.90;;;;;;5095670;28;19933;-84
2023/06/16 11:42:33;;;;;;;;;;;30.00;82.00;;;;;;5081611;28;19924;-84
2023/06/16 11:44:58;;;;;;;;;;;30.10;80.60;;;;;;5095431;28;19930;-84
2023/06/16 11:47:24;;;;;;;;;;;30.60;81.60;;;;;;5081686;28;19958;-87
2023/06/16 11:49:50;;;;;;;;;;;30.00;78.20;;;;;;5097514;28;19950;-84
2023/06/16 11:52:16;;;;;;;;;;;29.90;79.30;;;;;;5096529;28;19927;-84
2023/06/16 11:54:42;;;;;;;;;;;29.80;77.20;;;;;;5099949;28;19924;-84
2023/06/16 11:57:08;;;;;;;;;;;29.90;80.10;;;;;;5095238;28;19935;-84
2023/06/16 11:59:34;;;;;;;;;;;29.60;76.20;;;;;;5094008;28;20442;-84
2023/06/16 12:02:01;;;;;;;;;;;30.00;77.00;;;;;;5095405;28;19928;-85
2023/06/16 12:04:27;;;;;;;;;;;29.80;77.10;;;;;;5101354;28;20368;-83
2023/06/16 12:06:56;;;;;;;;;;;30.20;78.60;;;;;;5095337;28;19924;-84
2023/06/16 12:09:22;;;;;;;;;;;30.00;77.50;;;;;;5097111;28;19924;-84
2023/06/16 12:11:48;;;;;;;;;;;29.80;74.00;;;;;;5100034;28;19932;-89
2023/06/16 12:14:20;;;;;;;;;;;30.30;76.70;;;;;;5096800;28;19928;-84
2023/06/16 12:16:50;;;;;;;;;;;29.20;71.50;;;;;;5096874;28;19947;-85
2023/06/16 12:19:16;;;;;;;;;;;29.60;71.70;;;;;;5095694;28;19938;-85
2023/06/16 12:21:42;;;;;;;;;;;30.00;77.70;;;;;;5094268;28;19928;-84
2023/06/16 12:24:13;;;;;;;;;;;30.00;75.70;;;;;;5097092;28;20060;-83
2023/06/16 12:26:40;;;;;;;;;;;29.70;72.30;;;;;;5096908;28;19924;-82
2023/06/16 12:29:13;;;;;;;;;;;29.90;74.10;;;;;;5096765;28;19924;-82
2023/06/16 12:31:52;;;;;;;;;;;30.40;75.00;;;;;;5096577;28;19924;-84
2023/06/16 12:34:32;;;;;;;;;;;30.60;76.20;;;;;;5094985;28;19928;-82
2023/06/16 12:37:10;;;;;;;;;;;30.50;72.90;;;;;;5098423;28;19949;-83
2023/06/16 12:39:37;;;;;;;;;;;30.40;73.00;;;;;;5089759;28;19924;-86
2023/06/16 12:42:06;;;;;;;;;;;30.50;75.00;;;;;;5084667;28;19959;-83
2023/06/16 12:44:42;;;;;;;;;;;29.80;72.90;;;;;;5095437;28;19930;-83
2023/06/16 12:47:08;;;;;;;;;;;30.20;75.30;;;;;;5095118;28;19958;-87
2023/06/16 12:49:33;;;;;;;;;;;29.70;71.90;;;;;;5097935;28;19928;-86
2023/06/16 12:52:00;;;;;;;;;;;29.90;72.50;;;;;;5076652;28;19984;-83
2023/06/16 12:54:26;;;;;;;;;;;30.10;73.50;;;;;;5094879;28;19962;-83
2023/06/16 12:56:51;;;;;;;;;;;30.00;73.30;;;;;;5100836;28;19985;-83
2023/06/16 12:59:17;;;;;;;;;;;30.00;74.40;;;;;;5094108;28;19928;-83
2023/06/16 13:01:42;;;;;;;;;;;29.70;71.20;;;;;;5100026;28;19955;-85
2023/06/16 13:04:08;;;;;;;;;;;29.50;72.90;;;;;;5092253;28;19924;-86
2023/06/16 13:06:33;;;;;;;;;;;29.20;73.30;;;;;;5097821;28;20581;-82
2023/06/16 13:08:59;;;;;;;;;;;29.20;72.00;;;;;;5094247;28;20574;-83
2023/06/16 13:11:26;;;;;;;;;;;29.80;73.10;;;;;;5097371;28;20380;-83
2023/06/16 13:13:52;;;;;;;;;;;30.00;73.00;;;;;;5082081;28;19935;-84
2023/06/16 13:16:18;;;;;;;;;;;30.30;74.20;;;;;;5099303;28;19929;-85
2023/06/16 13:18:44;;;;;;;;;;;30.30;71.30;;;;;;5100037;28;19947;-85
2023/06/16 13:21:10;;;;;;;;;;;30.20;71.80;;;;;;5097624;28;19928;-82
2023/06/16 13:23:35;;;;;;;;;;;29.90;71.90;;;;;;5095356;28;19935;-83
2023/06/16 13:26:01;;;;;;;;;;;29.80;72.10;;;;;;5102788;28;19927;-85
2023/06/16 13:28:27;;;;;;;;;;;29.40;70.30;;;;;;5097398;28;20300;-83
2023/06/16 13:30:52;;;;;;;;;;;29.10;69.70;;;;;;5098436;28;20041;-83
2023/06/16 13:33:18;;;;;;;;;;;29.20;70.50;;;;;;5094836;28;19931;-87
2023/06/16 13:35:43;;;;;;;;;;;29.90;70.30;;;;;;5080145;28;19928;-86
2023/06/16 13:38:09;;;;;;;;;;;29.90;71.00;;;;;;5094250;28;20088;-85
2023/06/16 13:40:35;;;;;;;;;;;30.10;72.00;;;;;;5100875;28;19928;-85
2023/06/16 13:43:02;;;;;;;;;;;30.00;70.50;;;;;;5098742;28;19932;-84
2023/06/16 13:45:28;;;;;;;;;;;29.90;70.20;;;;;;5099239;28;20288;-83
2023/06/16 13:47:54;;;;;;;;;;;29.60;70.50;;;;;;5095424;28;20436;-87
2023/06/16 13:50:19;;;;;;;;;;;29.70;68.70;;;;;;5095521;28;19928;-82
2023/06/16 13:52:45;;;;;;;;;;;28.90;68.20;;;;;;5096453;28;20388;-85
2023/06/16 13:55:10;;;;;;;;;;;29.50;71.70;;;;;;5094383;28;19973;-87
2023/06/16 13:57:36;;;;;;;;;;;28.80;66.50;;;;;;5104648;28;19927;-87
2023/06/16 14:00:02;;;;;;;;;;;28.90;70.20;;;;;;5100019;28;19973;-86
2023/06/16 14:02:29;;;;;;;;;;;29.30;70.90;;;;;;5100179;28;20006;-83
2023/06/16 14:04:54;;;;;;;;;;;29.90;71.40;;;;;;5083735;28;20706;-85
2023/06/16 14:07:20;;;;;;;;;;;29.50;70.00;;;;;;5099175;28;19988;-83
2023/06/16 14:09:45;;;;;;;;;;;29.30;71.30;;;;;;5099970;28;19974;-86
2023/06/16 14:12:11;;;;;;;;;;;29.80;70.30;;;;;;5084773;28;19978;-85